createdAt,value
2023-05-15T00:00:51.331Z,97393.53
2023-05-15T00:03:18.981Z,97392.66
2023-05-15T00:05:46.504Z,97390.47
2023-05-15T00:08:14.111Z,97387.22
2023-05-15T00:10:47.518Z,97389.25
2023-05-15T00:13:21.517Z,97386.03
2023-05-15T00:15:49.006Z,97384.41
2023-05-15T00:18:16.607Z,97381.50
2023-05-15T00:20:44.425Z,97380.94
2023-05-15T00:23:11.856Z,97368.41
2023-05-15T00:25:39.387Z,97366.75
2023-05-15T00:28:06.881Z,97371.31
2023-05-15T00:30:34.380Z,97369.13
2023-05-15T00:33:01.825Z,97361.91
2023-05-15T00:35:29.528Z,97358.38
2023-05-15T00:37:58.136Z,97359.09
2023-05-15T00:40:26.881Z,97358.78
2023-05-15T00:42:55.178Z,97366.69
2023-05-15T00:45:26.229Z,97354.59
2023-05-15T00:47:55.113Z,97352.09
2023-05-15T00:50:23.827Z,97345.59
2023-05-15T00:52:51.542Z,97344.72
2023-05-15T00:55:19.173Z,97341.72
2023-05-15T00:57:48.432Z,97341.19
2023-05-15T01:00:18.615Z,97335.28
2023-05-15T01:02:46.537Z,97332.34
2023-05-15T01:05:14.219Z,97339.53
2023-05-15T01:07:52.342Z,97336.31
2023-05-15T01:10:21.452Z,97339.81
2023-05-15T01:12:54.308Z,97341.66
2023-05-15T01:15:21.839Z,97342.53
2023-05-15T01:17:51.224Z,97335.38
2023-05-15T01:20:20.352Z,97328.97
2023-05-15T01:23:23.992Z,97332.44
2023-05-15T01:26:19.965Z,97332.69
2023-05-15T01:28:57.980Z,97338.03
2023-05-15T01:31:31.548Z,97332.22
2023-05-15T01:34:04.311Z,97337.28
2023-05-15T01:36:47.113Z,97346.91
2023-05-15T01:39:20.043Z,97342.13
2023-05-15T01:42:00.959Z,97331.78
2023-05-15T01:44:34.538Z,97328.91
2023-05-15T01:47:09.047Z,97336.63
2023-05-15T01:49:38.534Z,97338.28
2023-05-15T01:52:13.506Z,97332.44
2023-05-15T01:54:43.119Z,97330.91
2023-05-15T01:57:11.724Z,97324.75
2023-05-15T01:59:42.110Z,97316.50
2023-05-15T02:02:11.301Z,97320.22
2023-05-15T02:04:40.161Z,97316.50
2023-05-15T02:07:08.179Z,97315.47
2023-05-15T02:09:37.159Z,97311.75
2023-05-15T02:12:06.143Z,97317.66
2023-05-15T02:14:35.130Z,97320.63
2023-05-15T02:17:02.661Z,97312.38
2023-05-15T02:19:30.333Z,97314.56
2023-05-15T02:21:57.850Z,97307.13
2023-05-15T02:24:25.338Z,97309.22
2023-05-15T02:27:18.883Z,97309.28
2023-05-15T02:30:25.973Z,97298.94
2023-05-15T02:33:14.997Z,97302.72
2023-05-15T02:36:03.732Z,97294.72
2023-05-15T02:38:58.969Z,97292.00
2023-05-15T02:41:27.117Z,97293.03
2023-05-15T02:43:56.180Z,97283.41
2023-05-15T02:46:25.510Z,97288.19
2023-05-15T02:48:55.162Z,97287.63
2023-05-15T02:51:22.850Z,97285.94
2023-05-15T02:53:50.899Z,97281.66
2023-05-15T02:56:18.401Z,97275.47
2023-05-15T02:58:46.080Z,97279.16
2023-05-15T03:01:13.685Z,97268.19
2023-05-15T03:03:41.167Z,97270.03
2023-05-15T03:06:08.748Z,97275.06
2023-05-15T03:08:36.167Z,97277.16
2023-05-15T03:11:03.834Z,97274.81
2023-05-15T03:13:31.281Z,97283.06
2023-05-15T03:15:58.726Z,97283.41
2023-05-15T03:18:26.268Z,97282.19
2023-05-15T03:20:53.894Z,97275.88
2023-05-15T03:23:21.406Z,97269.75
2023-05-15T03:25:48.865Z,97268.44
2023-05-15T03:28:16.486Z,97260.78
2023-05-15T03:30:45.141Z,97268.28
2023-05-15T03:33:12.721Z,97266.66
2023-05-15T03:35:40.197Z,97270.16
2023-05-15T03:38:07.708Z,97281.38
2023-05-15T03:40:35.204Z,97268.28
2023-05-15T03:43:02.676Z,97265.94
2023-05-15T03:45:30.273Z,97261.41
2023-05-15T03:47:57.862Z,97263.84
2023-05-15T03:50:26.128Z,97255.09
2023-05-15T03:52:53.829Z,97247.09
2023-05-15T03:55:21.437Z,97249.53
2023-05-15T03:57:48.996Z,97249.53
2023-05-15T04:00:18.409Z,97245.81
2023-05-15T04:02:48.660Z,97249.84
2023-05-15T04:05:16.362Z,97245.31
2023-05-15T04:07:44.166Z,97241.28
2023-05-15T04:10:11.651Z,97241.59
2023-05-15T04:12:39.359Z,97235.47
2023-05-15T04:15:20.340Z,97233.59
2023-05-15T04:17:49.605Z,97232.06
2023-05-15T04:20:19.041Z,97228.09
2023-05-15T04:22:46.951Z,97227.06
2023-05-15T04:25:15.198Z,97231.31
2023-05-15T04:27:43.937Z,97225.81
2023-05-15T04:30:12.832Z,97226.38
2023-05-15T04:32:40.720Z,97218.69
2023-05-15T04:35:10.433Z,97227.00
2023-05-15T04:37:42.155Z,97224.63
2023-05-15T04:40:10.307Z,97221.97
2023-05-15T04:42:39.147Z,97216.22
2023-05-15T04:45:07.961Z,97218.16
2023-05-15T04:47:35.944Z,97220.81
2023-05-15T04:50:03.755Z,97214.72
2023-05-15T04:52:32.444Z,97210.03
2023-05-15T04:54:59.942Z,97206.66
2023-05-15T04:57:27.955Z,97206.69
2023-05-15T04:59:55.442Z,97203.59
2023-05-15T05:02:23.594Z,97210.31
2023-05-15T05:04:51.445Z,97206.53
2023-05-15T05:07:19.065Z,97198.63
2023-05-15T05:09:46.655Z,97201.09
2023-05-15T05:12:14.694Z,97192.88
2023-05-15T05:14:42.511Z,97190.19
2023-05-15T05:17:10.201Z,97191.56
2023-05-15T05:19:37.707Z,97193.44
2023-05-15T05:22:06.013Z,97191.34
2023-05-15T05:24:37.783Z,97187.38
2023-05-15T05:27:05.630Z,97177.75
2023-05-15T05:29:33.158Z,97183.63
2023-05-15T05:32:01.464Z,97184.72
2023-05-15T05:34:29.193Z,97177.19
2023-05-15T05:36:56.692Z,97178.50
2023-05-15T05:39:24.197Z,97166.78
2023-05-15T05:41:51.640Z,97168.59
2023-05-15T05:44:19.135Z,97165.94
2023-05-15T05:46:46.674Z,97171.06
2023-05-15T05:49:14.155Z,97161.09
2023-05-15T05:51:41.693Z,97170.47
2023-05-15T05:54:09.259Z,97166.16
2023-05-15T05:56:36.747Z,97162.97
2023-05-15T05:59:04.840Z,97160.28
2023-05-15T06:01:32.509Z,97159.66
2023-05-15T06:03:59.994Z,97157.25
2023-05-15T06:06:27.693Z,97153.63
2023-05-15T06:08:56.477Z,97144.06
2023-05-15T06:11:25.572Z,97149.69
2023-05-15T06:13:53.296Z,97152.44
2023-05-15T06:16:21.962Z,97148.13
2023-05-15T06:18:49.474Z,97144.56
2023-05-15T06:21:16.960Z,97135.91
2023-05-15T06:23:44.533Z,97147.97
2023-05-15T06:26:12.135Z,97130.94
2023-05-15T06:28:39.589Z,97131.03
2023-05-15T06:31:07.214Z,97131.34
2023-05-15T06:33:34.791Z,97132.78
2023-05-15T06:36:02.342Z,97130.41
2023-05-15T06:38:29.884Z,97128.41
2023-05-15T06:40:57.306Z,97130.63
2023-05-15T06:43:24.810Z,97124.03
2023-05-15T06:45:52.359Z,97119.88
2023-05-15T06:48:20.191Z,97128.00
2023-05-15T06:50:47.665Z,97125.44
2023-05-15T06:53:15.152Z,97125.50
2023-05-15T06:55:42.644Z,97124.47
2023-05-15T06:58:10.071Z,97122.31
2023-05-15T07:00:37.719Z,97123.13
2023-05-15T07:03:05.326Z,97119.09
2023-05-15T07:05:32.983Z,97108.59
2023-05-15T07:08:00.743Z,97110.72
2023-05-15T07:10:28.436Z,97113.13
2023-05-15T07:12:56.056Z,97111.50
2023-05-15T07:15:23.509Z,97106.31
2023-05-15T07:17:51.230Z,97103.63
2023-05-15T07:20:18.740Z,97101.72
2023-05-15T07:22:55.697Z,97105.06
2023-05-15T07:25:25.694Z,97103.69
2023-05-15T07:27:53.671Z,97105.09
2023-05-15T07:30:21.179Z,97093.72
2023-05-15T07:32:49.274Z,97099.31
2023-05-15T07:35:18.555Z,97104.06
2023-05-15T07:37:46.828Z,97094.16
2023-05-15T07:40:15.694Z,97098.09
2023-05-15T07:42:45.928Z,97100.78
2023-05-15T07:45:13.482Z,97093.41
2023-05-15T07:47:50.840Z,97096.06
2023-05-15T07:50:18.991Z,97092.03
2023-05-15T07:52:46.650Z,97088.34
2023-05-15T07:55:14.111Z,97086.09
2023-05-15T07:57:41.673Z,97087.22
2023-05-15T08:00:12.875Z,97088.44
2023-05-15T08:02:41.817Z,97075.97
2023-05-15T08:05:09.476Z,97080.69
2023-05-15T08:07:37.103Z,97085.38
2023-05-15T08:10:06.471Z,97079.00
2023-05-15T08:16:22.178Z,97072.22
2023-05-15T08:18:53.186Z,97071.22
2023-05-15T08:21:20.845Z,97069.78
2023-05-15T08:23:48.272Z,97068.59
2023-05-15T08:26:15.757Z,97070.66
2023-05-15T08:28:43.203Z,97072.16
2023-05-15T08:31:10.864Z,97067.06
2023-05-15T08:33:38.314Z,97066.94
2023-05-15T08:36:06.315Z,97066.19
2023-05-15T08:38:33.894Z,97063.69
2023-05-15T08:41:12.890Z,97060.31
2023-05-15T08:43:41.874Z,97067.47
2023-05-15T08:46:09.999Z,97066.09
2023-05-15T08:48:40.481Z,97064.25
2023-05-15T08:51:11.022Z,97070.06
2023-05-15T08:53:38.603Z,97072.41
2023-05-15T08:56:06.606Z,97068.06
2023-05-15T08:58:34.610Z,97070.06
2023-05-15T09:01:02.552Z,97075.81
2023-05-15T09:03:30.162Z,97071.88
2023-05-15T09:05:59.267Z,97064.81
2023-05-15T09:08:28.785Z,97063.84
2023-05-15T09:10:58.284Z,97065.56
2023-05-15T09:13:25.866Z,97071.75
2023-05-15T09:15:53.337Z,97065.69
2023-05-15T09:18:21.157Z,97064.63
2023-05-15T09:20:48.625Z,97066.50
2023-05-15T09:23:27.207Z,97062.78
2023-05-15T09:25:57.295Z,97069.19
2023-05-15T09:28:34.046Z,97059.56
2023-05-15T09:31:03.983Z,97059.09
2023-05-15T09:33:36.839Z,97060.78
2023-05-15T09:36:06.330Z,97064.41
2023-05-15T09:38:43.894Z,97059.91
2023-05-15T09:41:11.717Z,97059.66
2023-05-15T09:43:41.159Z,97057.38
2023-05-15T09:46:09.618Z,97065.00
2023-05-15T09:48:37.339Z,97058.69
2023-05-15T09:51:14.484Z,97058.38
2023-05-15T09:53:42.038Z,97050.16
2023-05-15T09:56:10.670Z,97051.56
2023-05-15T09:58:38.158Z,97050.72
2023-05-15T10:01:11.116Z,97053.56
2023-05-15T10:03:42.429Z,97051.41
2023-05-15T10:06:18.640Z,97056.06
2023-05-15T10:08:53.884Z,97053.84
2023-05-15T10:11:22.824Z,97054.03
2023-05-15T10:13:50.516Z,97057.13
2023-05-15T10:16:21.327Z,97052.88
2023-05-15T10:18:51.502Z,97051.56
2023-05-15T10:21:23.109Z,97048.28
2023-05-15T10:23:52.833Z,97051.22
2023-05-15T10:26:41.745Z,97045.81
2023-05-15T10:29:21.491Z,97038.22
2023-05-15T10:31:50.115Z,97048.19
2023-05-15T10:34:19.140Z,97036.13
2023-05-15T10:36:47.093Z,97034.97
2023-05-15T10:39:15.282Z,97031.19
2023-05-15T10:41:44.978Z,97032.44
2023-05-15T10:44:14.971Z,97026.31
2023-05-15T10:46:43.331Z,97030.34
2023-05-15T10:49:11.119Z,97028.19
2023-05-15T10:51:40.534Z,97022.59
2023-05-15T10:54:09.814Z,97020.38
2023-05-15T10:56:39.667Z,97022.22
2023-05-15T10:59:11.578Z,97016.88
2023-05-15T11:01:40.308Z,97017.53
2023-05-15T11:04:18.788Z,97018.69
2023-05-15T11:06:48.336Z,97025.22
2023-05-15T11:09:21.707Z,97023.66
2023-05-15T11:11:52.125Z,97014.38
2023-05-15T11:14:20.035Z,97016.56
2023-05-15T11:16:53.548Z,97012.56
2023-05-15T11:19:25.362Z,96998.22
2023-05-15T11:22:17.513Z,96998.56
2023-05-15T11:24:59.639Z,96990.00
2023-05-15T11:27:31.720Z,96999.84
2023-05-15T11:30:13.477Z,96989.41
2023-05-15T11:32:47.033Z,96983.59
2023-05-15T11:35:44.009Z,96989.59
2023-05-15T11:38:11.453Z,96982.72
2023-05-15T11:41:04.319Z,96986.25
2023-05-15T11:43:33.279Z,96982.03
2023-05-15T11:46:03.601Z,96978.19
2023-05-15T11:48:33.636Z,96981.44
2023-05-15T11:51:02.412Z,96980.19
2023-05-15T11:53:31.410Z,96980.78
2023-05-15T11:55:59.458Z,96991.63
2023-05-15T11:58:27.111Z,96993.84
2023-05-15T12:00:54.896Z,96998.94
2023-05-15T12:03:36.493Z,97007.69
2023-05-15T12:06:04.573Z,97008.06
2023-05-15T12:08:36.376Z,97011.06
2023-05-15T12:11:04.982Z,97009.84
2023-05-15T12:13:33.909Z,97007.59
2023-05-15T12:16:05.242Z,96996.69
2023-05-15T12:18:33.817Z,96989.09
2023-05-15T12:21:01.453Z,97004.59
2023-05-15T12:23:29.039Z,97009.75
2023-05-15T12:26:01.154Z,97006.59
2023-05-15T12:28:30.423Z,96999.44
2023-05-15T12:30:58.666Z,97002.91
2023-05-15T12:33:26.422Z,97010.47
2023-05-15T12:35:59.881Z,97020.69
2023-05-15T12:38:29.310Z,97030.28
2023-05-15T12:40:57.695Z,97027.69
2023-05-15T12:43:26.372Z,97029.81
2023-05-15T12:45:55.441Z,97016.63
2023-05-15T12:48:23.118Z,97018.75
2023-05-15T12:50:50.606Z,97007.53
2023-05-15T12:53:18.213Z,96998.59
2023-05-15T12:55:47.072Z,96997.13
2023-05-15T12:58:18.822Z,96994.91
2023-05-15T13:00:47.000Z,96990.75
2023-05-15T13:03:15.418Z,96987.06
2023-05-15T13:05:45.586Z,96985.19
2023-05-15T13:08:18.575Z,96982.34
2023-05-15T13:10:47.450Z,96975.69
2023-05-15T13:13:15.630Z,96969.75
2023-05-15T13:15:45.138Z,96964.34
2023-05-15T13:18:14.520Z,96961.28
2023-05-15T13:20:53.767Z,96955.69
2023-05-15T13:23:24.421Z,96947.75
2023-05-15T13:25:51.876Z,96953.16
2023-05-15T13:28:19.418Z,96942.50
2023-05-15T13:30:46.970Z,96939.34
2023-05-15T13:33:14.603Z,96949.44
2023-05-15T13:35:43.236Z,96944.88
2023-05-15T13:38:11.860Z,96941.81
2023-05-15T13:40:39.701Z,96947.28
2023-05-15T13:43:07.319Z,96940.03
2023-05-15T13:45:34.969Z,96941.44
2023-05-15T13:48:02.733Z,96933.28
2023-05-15T13:50:30.282Z,96940.41
2023-05-15T13:52:57.819Z,96931.28
2023-05-15T13:55:26.272Z,96929.56
2023-05-15T13:57:53.790Z,96942.22
2023-05-15T14:00:21.867Z,96942.19
2023-05-15T14:02:49.387Z,96948.03
2023-05-15T14:05:17.634Z,96950.13
2023-05-15T14:07:45.191Z,96945.84
2023-05-15T14:10:12.731Z,96934.03
2023-05-15T14:12:41.094Z,96925.19
2023-05-15T14:15:09.258Z,96926.50
2023-05-15T14:17:36.703Z,96935.50
2023-05-15T14:20:05.410Z,96922.28
2023-05-15T14:22:33.108Z,96924.84
2023-05-15T14:25:00.674Z,96923.13
2023-05-15T14:27:28.238Z,96923.28
2023-05-15T14:29:56.900Z,96923.91
2023-05-15T14:32:25.163Z,96917.75
2023-05-15T14:34:52.603Z,96924.59
2023-05-15T14:37:20.094Z,96928.09
2023-05-15T14:39:47.547Z,96926.44
2023-05-15T14:42:15.186Z,96926.22
2023-05-15T14:44:42.694Z,96932.03
2023-05-15T14:47:16.425Z,96932.81
2023-05-15T14:49:43.917Z,96936.66
2023-05-15T14:52:12.512Z,96932.63
2023-05-15T14:54:40.280Z,96939.19
2023-05-15T14:57:08.202Z,96930.44
2023-05-15T14:59:35.731Z,96936.22
2023-05-15T15:02:03.456Z,96931.06
2023-05-15T15:04:34.535Z,96938.16
2023-05-15T15:07:05.466Z,96930.91
2023-05-15T15:09:33.050Z,96944.41
2023-05-15T15:12:00.757Z,96939.13
2023-05-15T15:14:28.166Z,96929.88
2023-05-15T15:16:55.663Z,96933.97
2023-05-15T15:19:23.775Z,96934.06
2023-05-15T15:21:51.363Z,96935.00
2023-05-15T15:24:18.934Z,96937.78
2023-05-15T15:26:46.436Z,96943.38
2023-05-15T15:29:13.959Z,96955.72
2023-05-15T15:31:41.381Z,96942.94
2023-05-15T15:34:09.134Z,96949.41
2023-05-15T15:36:38.820Z,96953.41
2023-05-15T15:39:06.368Z,96952.84
2023-05-15T15:41:33.840Z,96949.88
2023-05-15T15:44:01.423Z,96952.06
2023-05-15T15:46:29.312Z,96939.94
2023-05-15T15:48:57.132Z,96949.72
2023-05-15T15:51:24.676Z,96942.94
2023-05-15T15:53:52.203Z,96936.66
2023-05-15T15:56:19.764Z,96943.94
2023-05-15T15:58:47.201Z,96943.94
2023-05-15T16:01:14.970Z,96936.06
2023-05-15T16:03:42.410Z,96937.22
2023-05-15T16:06:09.938Z,96929.06
2023-05-15T16:08:37.630Z,96934.44
2023-05-15T16:11:05.212Z,96936.69
2023-05-15T16:13:32.717Z,96926.16
2023-05-15T16:16:00.184Z,96962.34
2023-05-15T16:18:27.738Z,96959.59
2023-05-15T16:20:55.286Z,96957.63
2023-05-15T16:23:22.824Z,96958.94
2023-05-15T16:25:50.444Z,96969.81
2023-05-15T16:28:17.935Z,96974.72
2023-05-15T16:30:49.447Z,96979.72
2023-05-15T16:33:18.364Z,96986.38
2023-05-15T16:35:46.610Z,96987.94
2023-05-15T16:38:14.692Z,96987.72
2023-05-15T16:40:42.276Z,96996.69
2023-05-15T16:43:09.993Z,96988.59
2023-05-15T16:45:37.555Z,96989.94
2023-05-15T16:48:05.792Z,96996.53
2023-05-15T16:50:36.264Z,96995.13
2023-05-15T16:53:04.981Z,96995.22
2023-05-15T16:55:32.757Z,96991.88
2023-05-15T16:58:00.208Z,96994.94
2023-05-15T17:00:28.092Z,96998.84
2023-05-15T17:02:55.945Z,96997.66
2023-05-15T17:05:23.628Z,97004.81
2023-05-15T17:07:51.053Z,97002.91
2023-05-15T17:10:18.571Z,97006.75
2023-05-15T17:12:46.183Z,97009.78
2023-05-15T17:15:13.828Z,97021.63
2023-05-15T17:17:41.460Z,97025.47
2023-05-15T17:20:09.507Z,97032.25
2023-05-15T17:22:37.244Z,97032.00
2023-05-15T17:25:05.132Z,97031.81
2023-05-15T17:27:32.876Z,97028.56
2023-05-15T17:30:00.956Z,97024.34
2023-05-15T17:32:30.304Z,97020.63
2023-05-15T17:34:57.771Z,97027.41
2023-05-15T17:37:25.254Z,97024.72
2023-05-15T17:39:53.254Z,97028.78
2023-05-15T17:42:21.522Z,97030.38
2023-05-15T17:44:49.003Z,97031.94
2023-05-15T17:47:16.794Z,97033.50
2023-05-15T17:49:44.265Z,97035.09
2023-05-15T17:52:11.766Z,97039.41
2023-05-15T17:54:39.237Z,97031.06
2023-05-15T17:57:06.612Z,97039.91
2023-05-15T17:59:34.242Z,97038.78
2023-05-15T18:02:02.087Z,97042.25
2023-05-15T18:04:29.631Z,97043.38
2023-05-15T18:06:57.117Z,97045.25
2023-05-15T18:09:24.910Z,97046.38
2023-05-15T18:11:52.604Z,97056.34
2023-05-15T18:14:20.084Z,97056.13
2023-05-15T18:16:47.581Z,97065.31
2023-05-15T18:19:15.146Z,97059.47
2023-05-15T18:21:42.748Z,97070.22
2023-05-15T18:24:10.220Z,97068.09
2023-05-15T18:26:37.936Z,97080.19
2023-05-15T18:29:05.679Z,97084.81
2023-05-15T18:31:33.297Z,97081.63
2023-05-15T18:34:01.525Z,97089.47
2023-05-15T18:36:28.988Z,97098.34
2023-05-15T18:38:56.795Z,97099.47
2023-05-15T18:41:24.336Z,97108.56
2023-05-15T18:43:52.425Z,97103.22
2023-05-15T18:46:20.102Z,97112.31
2023-05-15T18:48:47.606Z,97109.13
2023-05-15T18:51:15.133Z,97099.97
2023-05-15T18:53:42.658Z,97108.81
2023-05-15T18:56:10.174Z,97099.72
2023-05-15T18:58:37.648Z,97106.44
2023-05-15T19:01:05.168Z,97107.50
2023-05-15T19:03:35.623Z,97103.47
2023-05-15T19:06:03.268Z,97100.53
2023-05-15T19:08:30.642Z,97102.97
2023-05-15T19:11:00.649Z,97104.88
2023-05-15T19:13:32.712Z,97109.69
2023-05-15T19:16:00.320Z,97113.44
2023-05-15T19:18:27.713Z,97117.75
2023-05-15T19:20:56.806Z,97120.44
2023-05-15T19:23:24.784Z,97126.91
2023-05-15T19:25:52.719Z,97125.81
2023-05-15T19:28:20.266Z,97131.69
2023-05-15T19:30:47.712Z,97133.84
2023-05-15T19:33:18.413Z,97141.88
2023-05-15T19:35:45.979Z,97141.59
2023-05-15T19:38:13.725Z,97138.38
2023-05-15T19:40:44.139Z,97145.03
2023-05-15T19:43:11.660Z,97142.34
2023-05-15T19:45:42.481Z,97145.03
2023-05-15T19:48:10.188Z,97146.88
2023-05-15T19:50:40.600Z,97144.19
2023-05-15T19:53:08.489Z,97146.84
2023-05-15T19:55:36.155Z,97150.56
2023-05-15T19:58:04.179Z,97142.00
2023-05-15T20:00:31.798Z,97137.41
2023-05-15T20:03:00.734Z,97139.25
2023-05-15T20:05:28.779Z,97140.59
2023-05-15T20:07:56.269Z,97140.84
2023-05-15T20:10:24.473Z,97145.38
2023-05-15T20:12:52.272Z,97144.59
2023-05-15T20:15:19.718Z,97149.94
2023-05-15T20:17:47.274Z,97148.88
2023-05-15T20:20:15.148Z,97145.06
2023-05-15T20:22:44.597Z,97148.78
2023-05-15T20:25:12.080Z,97151.72
2023-05-15T20:27:39.651Z,97153.84
2023-05-15T20:30:07.736Z,97150.34
2023-05-15T20:32:36.487Z,97146.13
2023-05-15T20:35:04.588Z,97150.63
2023-05-15T20:37:32.133Z,97141.03
2023-05-15T20:40:00.387Z,97144.25
2023-05-15T20:42:28.501Z,97145.84
2023-05-15T20:44:55.897Z,97150.63
2023-05-15T20:47:23.465Z,97154.66
2023-05-15T20:49:51.057Z,97156.53
2023-05-15T20:52:18.618Z,97148.50
2023-05-15T20:54:46.204Z,97149.34
2023-05-15T20:57:13.652Z,97157.09
2023-05-15T20:59:41.652Z,97150.13
2023-05-15T21:02:09.109Z,97155.75
2023-05-15T21:04:36.670Z,97154.94
2023-05-15T21:07:04.148Z,97155.22
2023-05-15T21:09:31.764Z,97146.63
2023-05-15T21:11:59.960Z,97151.16
2023-05-15T21:14:27.540Z,97153.28
2023-05-15T21:16:55.129Z,97151.66
2023-05-15T21:19:22.857Z,97153.78
2023-05-15T21:21:50.542Z,97155.13
2023-05-15T21:24:18.096Z,97146.31
2023-05-15T21:26:45.967Z,97146.31
2023-05-15T21:29:13.816Z,97146.59
2023-05-15T21:31:42.234Z,97148.75
2023-05-15T21:34:09.754Z,97147.44
2023-05-15T21:36:37.288Z,97153.81
2023-05-15T21:39:04.788Z,97147.44
2023-05-15T21:41:32.409Z,97153.34
2023-05-15T21:43:59.799Z,97155.25
2023-05-15T21:46:27.330Z,97157.66
2023-05-15T21:48:54.762Z,97160.38
2023-05-15T21:51:22.283Z,97160.34
2023-05-15T21:53:49.806Z,97156.84
2023-05-15T21:56:17.472Z,97157.09
2023-05-15T21:58:44.888Z,97153.88
2023-05-15T22:01:12.446Z,97164.00
2023-05-15T22:03:39.913Z,97166.34
2023-05-15T22:06:07.600Z,97163.34
2023-05-15T22:08:35.153Z,97168.66
2023-05-15T22:11:03.697Z,97171.00
2023-05-15T22:13:31.242Z,97169.63
2023-05-15T22:15:58.745Z,97175.72
2023-05-15T22:18:28.327Z,97180.50
2023-05-15T22:20:56.415Z,97185.56
2023-05-15T22:23:23.894Z,97183.13
2023-05-15T22:25:51.554Z,97187.66
2023-05-15T22:28:19.041Z,97186.59
2023-05-15T22:30:46.779Z,97184.97
2023-05-15T22:33:14.430Z,97184.72
2023-05-15T22:35:41.918Z,97186.03
2023-05-15T22:38:09.828Z,97191.41
2023-05-15T22:40:37.342Z,97188.69
2023-05-15T22:43:04.776Z,97193.50
2023-05-15T22:45:32.311Z,97195.63
2023-05-15T22:47:59.802Z,97195.06
2023-05-15T22:50:27.828Z,97195.09
2023-05-15T22:52:55.883Z,97198.63
2023-05-15T22:55:23.374Z,97195.34
2023-05-15T22:57:50.902Z,97205.75
2023-05-15T23:00:19.275Z,97193.50
2023-05-15T23:02:46.891Z,97207.22
2023-05-15T23:05:14.419Z,97203.41
2023-05-15T23:07:41.924Z,97204.97
2023-05-15T23:10:09.840Z,97205.22
2023-05-15T23:12:37.329Z,97215.81
2023-05-15T23:15:05.526Z,97212.84
2023-05-15T23:17:33.106Z,97216.25
2023-05-15T23:20:00.930Z,97222.09
2023-05-15T23:22:28.594Z,97219.13
2023-05-15T23:24:56.113Z,97216.22
2023-05-15T23:27:23.552Z,97217.56
2023-05-15T23:29:51.140Z,97229.00
2023-05-15T23:32:18.621Z,97223.06
2023-05-15T23:34:46.545Z,97226.53
2023-05-15T23:37:14.332Z,97229.44
2023-05-15T23:39:41.802Z,97226.66
2023-05-15T23:42:12.599Z,97234.09
2023-05-15T23:44:40.068Z,97229.25
2023-05-15T23:47:08.794Z,97235.34
2023-05-15T23:49:36.354Z,97231.38
2023-05-15T23:52:03.983Z,97231.31
2023-05-15T23:54:31.475Z,97228.06
2023-05-15T23:56:58.913Z,97233.19
2023-05-15T23:59:26.369Z,97236.34
